sensor_id;sensor_type;location;lat;lon;timestamp;temperature;humidity
65582;DHT22;52231;40.090;18.348;2022-11-15T00:00:19;13.90;94.10
65582;DHT22;52231;40.090;18.348;2022-11-15T00:03:06;13.90;94.00
65582;DHT22;52231;40.090;18.348;2022-11-15T00:05:52;13.80;94.00
65582;DHT22;52231;40.090;18.348;2022-11-15T00:08:39;13.80;94.10
65582;DHT22;52231;40.090;18.348;2022-11-15T00:11:26;13.70;94.10
65582;DHT22;52231;40.090;18.348;2022-11-15T00:14:13;13.70;94.00
65582;DHT22;52231;40.090;18.348;2022-11-15T00:17:00;13.60;94.00
65582;DHT22;52231;40.090;18.348;2022-11-15T00:19:46;13.60;94.10
65582;DHT22;52231;40.090;18.348;2022-11-15T00:22:34;13.60;94.10
65582;DHT22;52231;40.090;18.348;2022-11-15T00:25:20;13.60;94.10
65582;DHT22;52231;40.090;18.348;2022-11-15T00:28:07;13.50;94.10
65582;DHT22;52231;40.090;18.348;2022-11-15T00:30:54;13.50;94.10
65582;DHT22;52231;40.090;18.348;2022-11-15T00:33:43;13.50;94.10
65582;DHT22;52231;40.090;18.348;2022-11-15T00:36:33;13.50;94.20
65582;DHT22;52231;40.090;18.348;2022-11-15T00:39:20;13.40;94.10
65582;DHT22;52231;40.090;18.348;2022-11-15T00:42:07;13.30;94.10
65582;DHT22;52231;40.090;18.348;2022-11-15T00:44:53;13.30;94.00
65582;DHT22;52231;40.090;18.348;2022-11-15T00:47:40;13.20;94.00
65582;DHT22;52231;40.090;18.348;2022-11-15T00:50:26;13.20;93.90
65582;DHT22;52231;40.090;18.348;2022-11-15T00:53:13;13.10;93.90
65582;DHT22;52231;40.090;18.348;2022-11-15T00:56:00;13.00;93.80
65582;DHT22;52231;40.090;18.348;2022-11-15T00:58:47;12.90;93.70
65582;DHT22;52231;40.090;18.348;2022-11-15T01:01:33;12.80;93.70
65582;DHT22;52231;40.090;18.348;2022-11-15T01:04:20;12.80;93.70
65582;DHT22;52231;40.090;18.348;2022-11-15T01:07:06;12.70;93.70
65582;DHT22;52231;40.090;18.348;2022-11-15T01:09:53;12.60;93.60
65582;DHT22;52231;40.090;18.348;2022-11-15T01:12:39;12.60;93.60
65582;DHT22;52231;40.090;18.348;2022-11-15T01:15:25;12.50;93.60
65582;DHT22;52231;40.090;18.348;2022-11-15T01:18:12;12.50;93.70
65582;DHT22;52231;40.090;18.348;2022-11-15T01:20:58;12.50;93.80
65582;DHT22;52231;40.090;18.348;2022-11-15T01:23:45;12.60;93.90
65582;DHT22;52231;40.090;18.348;2022-11-15T01:26:32;12.60;94.00
65582;DHT22;52231;40.090;18.348;2022-11-15T01:29:18;12.60;94.00
65582;DHT22;52231;40.090;18.348;2022-11-15T01:32:04;12.60;94.00
65582;DHT22;52231;40.090;18.348;2022-11-15T01:34:51;12.60;94.10
65582;DHT22;52231;40.090;18.348;2022-11-15T01:37:38;12.60;94.10
65582;DHT22;52231;40.090;18.348;2022-11-15T01:40:24;12.60;94.20
65582;DHT22;52231;40.090;18.348;2022-11-15T01:43:32;12.60;94.20
65582;DHT22;52231;40.090;18.348;2022-11-15T01:46:23;12.70;94.20
65582;DHT22;52231;40.090;18.348;2022-11-15T01:49:16;12.70;94.20
65582;DHT22;52231;40.090;18.348;2022-11-15T01:52:09;12.70;94.20
65582;DHT22;52231;40.090;18.348;2022-11-15T01:55:20;12.70;94.20
65582;DHT22;52231;40.090;18.348;2022-11-15T01:58:07;12.60;94.20
65582;DHT22;52231;40.090;18.348;2022-11-15T02:00:54;12.50;94.20
65582;DHT22;52231;40.090;18.348;2022-11-15T02:03:59;12.60;94.20
65582;DHT22;52231;40.090;18.348;2022-11-15T02:06:47;12.50;94.20
65582;DHT22;52231;40.090;18.348;2022-11-15T02:09:36;12.40;94.20
65582;DHT22;52231;40.090;18.348;2022-11-15T02:12:23;12.30;94.10
65582;DHT22;52231;40.090;18.348;2022-11-15T02:15:11;12.40;94.20
65582;DHT22;52231;40.090;18.348;2022-11-15T02:35:58;12.10;94.10
65582;DHT22;52231;40.090;18.348;2022-11-15T02:39:16;12.00;94.10
65582;DHT22;52231;40.090;18.348;2022-11-15T02:42:13;12.00;94.10
65582;DHT22;52231;40.090;18.348;2022-11-15T02:45:30;12.00;94.10
65582;DHT22;52231;40.090;18.348;2022-11-15T02:48:17;11.90;94.20
65582;DHT22;52231;40.090;18.348;2022-11-15T02:51:05;12.00;94.20
65582;DHT22;52231;40.090;18.348;2022-11-15T02:53:52;11.90;94.20
65582;DHT22;52231;40.090;18.348;2022-11-15T02:56:39;11.90;94.20
65582;DHT22;52231;40.090;18.348;2022-11-15T03:02:46;11.80;94.20
65582;DHT22;52231;40.090;18.348;2022-11-15T03:05:56;11.90;94.20
65582;DHT22;52231;40.090;18.348;2022-11-15T03:11:59;11.90;94.30
65582;DHT22;52231;40.090;18.348;2022-11-15T03:14:59;11.80;94.30
65582;DHT22;52231;40.090;18.348;2022-11-15T03:18:19;11.80;94.30
65582;DHT22;52231;40.090;18.348;2022-11-15T03:21:08;11.80;94.30
65582;DHT22;52231;40.090;18.348;2022-11-15T03:23:58;11.80;94.40
65582;DHT22;52231;40.090;18.348;2022-11-15T03:26:48;11.80;94.30
65582;DHT22;52231;40.090;18.348;2022-11-15T03:29:39;11.80;94.40
65582;DHT22;52231;40.090;18.348;2022-11-15T03:32:37;11.70;94.30
65582;DHT22;52231;40.090;18.348;2022-11-15T03:35:27;11.60;94.30
65582;DHT22;52231;40.090;18.348;2022-11-15T03:38:29;11.60;94.30
65582;DHT22;52231;40.090;18.348;2022-11-15T03:41:27;11.50;94.20
65582;DHT22;52231;40.090;18.348;2022-11-15T03:44:41;11.50;94.20
65582;DHT22;52231;40.090;18.348;2022-11-15T03:47:55;11.50;94.20
65582;DHT22;52231;40.090;18.348;2022-11-15T03:50:45;11.40;94.20
65582;DHT22;52231;40.090;18.348;2022-11-15T03:53:33;11.40;94.10
65582;DHT22;52231;40.090;18.348;2022-11-15T03:56:19;11.20;93.90
65582;DHT22;52231;40.090;18.348;2022-11-15T03:59:06;11.10;93.90
65582;DHT22;52231;40.090;18.348;2022-11-15T04:01:53;11.10;94.00
65582;DHT22;52231;40.090;18.348;2022-11-15T04:04:40;11.10;94.10
65582;DHT22;52231;40.090;18.348;2022-11-15T04:07:26;11.20;94.20
65582;DHT22;52231;40.090;18.348;2022-11-15T04:10:13;11.20;94.20
65582;DHT22;52231;40.090;18.348;2022-11-15T04:13:01;11.10;94.20
65582;DHT22;52231;40.090;18.348;2022-11-15T04:15:48;11.10;94.20
65582;DHT22;52231;40.090;18.348;2022-11-15T04:18:34;11.10;94.20
65582;DHT22;52231;40.090;18.348;2022-11-15T04:21:20;11.00;94.20
65582;DHT22;52231;40.090;18.348;2022-11-15T04:24:26;11.00;94.30
65582;DHT22;52231;40.090;18.348;2022-11-15T04:27:12;11.00;94.30
65582;DHT22;52231;40.090;18.348;2022-11-15T04:29:59;11.00;94.40
65582;DHT22;52231;40.090;18.348;2022-11-15T04:32:46;11.00;94.30
65582;DHT22;52231;40.090;18.348;2022-11-15T04:35:32;11.00;94.20
65582;DHT22;52231;40.090;18.348;2022-11-15T04:38:19;11.00;94.10
65582;DHT22;52231;40.090;18.348;2022-11-15T04:41:05;10.90;94.10
65582;DHT22;52231;40.090;18.348;2022-11-15T04:43:52;10.80;94.10
65582;DHT22;52231;40.090;18.348;2022-11-15T04:46:38;10.80;94.10
65582;DHT22;52231;40.090;18.348;2022-11-15T04:49:25;10.70;94.10
65582;DHT22;52231;40.090;18.348;2022-11-15T04:52:11;10.70;94.10
65582;DHT22;52231;40.090;18.348;2022-11-15T04:54:58;10.60;94.10
65582;DHT22;52231;40.090;18.348;2022-11-15T04:57:46;10.60;94.10
65582;DHT22;52231;40.090;18.348;2022-11-15T05:00:33;10.60;94.10
65582;DHT22;52231;40.090;18.348;2022-11-15T05:03:21;10.60;94.10
65582;DHT22;52231;40.090;18.348;2022-11-15T05:06:26;10.50;94.00
65582;DHT22;52231;40.090;18.348;2022-11-15T05:09:13;10.50;94.10
65582;DHT22;52231;40.090;18.348;2022-11-15T05:12:00;10.50;94.10
65582;DHT22;52231;40.090;18.348;2022-11-15T05:14:46;10.40;94.20
65582;DHT22;52231;40.090;18.348;2022-11-15T05:17:34;10.50;94.20
65582;DHT22;52231;40.090;18.348;2022-11-15T05:20:21;10.50;94.20
65582;DHT22;52231;40.090;18.348;2022-11-15T05:23:08;10.60;94.30
65582;DHT22;52231;40.090;18.348;2022-11-15T05:26:04;10.60;94.30
65582;DHT22;52231;40.090;18.348;2022-11-15T05:28:55;10.60;94.30
65582;DHT22;52231;40.090;18.348;2022-11-15T05:31:42;10.60;94.40
65582;DHT22;52231;40.090;18.348;2022-11-15T05:34:29;10.60;94.40
65582;DHT22;52231;40.090;18.348;2022-11-15T05:37:16;10.70;94.40
65582;DHT22;52231;40.090;18.348;2022-11-15T05:40:03;10.70;94.40
65582;DHT22;52231;40.090;18.348;2022-11-15T05:42:50;10.80;94.50
65582;DHT22;52231;40.090;18.348;2022-11-15T05:45:36;10.80;94.50
65582;DHT22;52231;40.090;18.348;2022-11-15T05:48:23;10.90;94.50
65582;DHT22;52231;40.090;18.348;2022-11-15T05:51:09;10.90;94.50
65582;DHT22;52231;40.090;18.348;2022-11-15T05:53:58;10.90;94.40
65582;DHT22;52231;40.090;18.348;2022-11-15T05:56:47;11.00;94.40
65582;DHT22;52231;40.090;18.348;2022-11-15T05:59:34;11.10;94.40
65582;DHT22;52231;40.090;18.348;2022-11-15T06:02:21;11.30;94.40
65582;DHT22;52231;40.090;18.348;2022-11-15T06:05:08;11.40;94.30
65582;DHT22;52231;40.090;18.348;2022-11-15T06:07:57;11.50;94.20
65582;DHT22;52231;40.090;18.348;2022-11-15T06:10:44;11.70;94.20
65582;DHT22;52231;40.090;18.348;2022-11-15T06:13:31;11.80;94.10
65582;DHT22;52231;40.090;18.348;2022-11-15T06:16:18;11.90;94.10
65582;DHT22;52231;40.090;18.348;2022-11-15T06:19:06;12.10;94.10
65582;DHT22;52231;40.090;18.348;2022-11-15T06:21:52;12.40;94.00
65582;DHT22;52231;40.090;18.348;2022-11-15T06:24:39;12.60;93.90
65582;DHT22;52231;40.090;18.348;2022-11-15T06:27:25;12.80;93.80
65582;DHT22;52231;40.090;18.348;2022-11-15T06:30:12;13.10;93.70
65582;DHT22;52231;40.090;18.348;2022-11-15T06:33:00;13.30;93.70
65582;DHT22;52231;40.090;18.348;2022-11-15T06:35:47;13.70;93.70
65582;DHT22;52231;40.090;18.348;2022-11-15T06:38:34;14.00;93.50
65582;DHT22;52231;40.090;18.348;2022-11-15T06:41:21;14.30;93.10
65582;DHT22;52231;40.090;18.348;2022-11-15T06:44:07;14.70;92.50
65582;DHT22;52231;40.090;18.348;2022-11-15T06:46:54;14.90;91.70
65582;DHT22;52231;40.090;18.348;2022-11-15T06:49:40;15.20;90.70
65582;DHT22;52231;40.090;18.348;2022-11-15T06:52:27;15.40;90.20
65582;DHT22;52231;40.090;18.348;2022-11-15T06:55:18;15.60;89.70
65582;DHT22;52231;40.090;18.348;2022-11-15T06:58:05;15.70;89.10
65582;DHT22;52231;40.090;18.348;2022-11-15T07:00:51;15.90;88.80
65582;DHT22;52231;40.090;18.348;2022-11-15T07:03:39;16.00;88.40
65582;DHT22;52231;40.090;18.348;2022-11-15T07:06:26;16.10;88.10
65582;DHT22;52231;40.090;18.348;2022-11-15T07:09:12;16.20;87.80
65582;DHT22;52231;40.090;18.348;2022-11-15T07:11:59;16.30;87.50
65582;DHT22;52231;40.090;18.348;2022-11-15T07:14:48;16.30;87.20
65582;DHT22;52231;40.090;18.348;2022-11-15T07:17:34;16.30;86.80
65582;DHT22;52231;40.090;18.348;2022-11-15T07:20:21;16.30;86.90
65582;DHT22;52231;40.090;18.348;2022-11-15T07:23:07;16.40;87.10
65582;DHT22;52231;40.090;18.348;2022-11-15T07:25:55;16.50;87.00
65582;DHT22;52231;40.090;18.348;2022-11-15T07:28:42;16.80;86.70
65582;DHT22;52231;40.090;18.348;2022-11-15T07:31:28;16.90;86.40
65582;DHT22;52231;40.090;18.348;2022-11-15T07:34:15;17.00;85.90
65582;DHT22;52231;40.090;18.348;2022-11-15T07:37:02;17.20;85.50
65582;DHT22;52231;40.090;18.348;2022-11-15T07:39:48;17.40;85.20
65582;DHT22;52231;40.090;18.348;2022-11-15T07:42:35;17.70;84.80
65582;DHT22;52231;40.090;18.348;2022-11-15T07:45:45;17.90;84.00
65582;DHT22;52231;40.090;18.348;2022-11-15T07:48:31;18.10;83.40
65582;DHT22;52231;40.090;18.348;2022-11-15T07:51:27;18.30;82.80
65582;DHT22;52231;40.090;18.348;2022-11-15T07:54:14;18.50;82.30
65582;DHT22;52231;40.090;18.348;2022-11-15T07:57:00;18.60;82.20
65582;DHT22;52231;40.090;18.348;2022-11-15T07:59:50;18.80;81.60
65582;DHT22;52231;40.090;18.348;2022-11-15T08:02:39;19.00;81.50
65582;DHT22;52231;40.090;18.348;2022-11-15T08:05:26;19.30;81.10
65582;DHT22;52231;40.090;18.348;2022-11-15T08:08:13;19.50;80.40
65582;DHT22;52231;40.090;18.348;2022-11-15T08:11:03;19.70;80.10
65582;DHT22;52231;40.090;18.348;2022-11-15T08:13:50;19.80;79.80
65582;DHT22;52231;40.090;18.348;2022-11-15T08:16:36;19.90;79.00
65582;DHT22;52231;40.090;18.348;2022-11-15T08:19:23;20.00;78.70
65582;DHT22;52231;40.090;18.348;2022-11-15T08:22:09;19.90;78.60
65582;DHT22;52231;40.090;18.348;2022-11-15T08:24:56;20.10;78.50
65582;DHT22;52231;40.090;18.348;2022-11-15T08:27:42;20.10;77.50
65582;DHT22;52231;40.090;18.348;2022-11-15T08:30:30;20.10;77.40
65582;DHT22;52231;40.090;18.348;2022-11-15T08:33:16;20.10;77.30
65582;DHT22;52231;40.090;18.348;2022-11-15T08:36:03;20.20;77.00
65582;DHT22;52231;40.090;18.348;2022-11-15T08:38:50;20.30;76.70
65582;DHT22;52231;40.090;18.348;2022-11-15T08:41:37;20.20;76.70
65582;DHT22;52231;40.090;18.348;2022-11-15T08:44:24;20.30;76.40
65582;DHT22;52231;40.090;18.348;2022-11-15T08:47:11;20.40;75.60
65582;DHT22;52231;40.090;18.348;2022-11-15T08:49:59;20.50;75.50
65582;DHT22;52231;40.090;18.348;2022-11-15T08:52:46;20.60;75.10
65582;DHT22;52231;40.090;18.348;2022-11-15T08:55:36;20.80;75.10
65582;DHT22;52231;40.090;18.348;2022-11-15T08:58:23;20.70;74.70
65582;DHT22;52231;40.090;18.348;2022-11-15T09:01:18;20.80;74.90
65582;DHT22;52231;40.090;18.348;2022-11-15T09:04:05;20.90;74.60
65582;DHT22;52231;40.090;18.348;2022-11-15T09:06:52;21.00;73.80
65582;DHT22;52231;40.090;18.348;2022-11-15T09:09:38;21.00;73.10
65582;DHT22;52231;40.090;18.348;2022-11-15T09:12:25;21.00;73.40
65582;DHT22;52231;40.090;18.348;2022-11-15T09:15:12;20.90;73.20
65582;DHT22;52231;40.090;18.348;2022-11-15T09:17:59;20.80;73.70
65582;DHT22;52231;40.090;18.348;2022-11-15T09:20:46;20.90;74.00
65582;DHT22;52231;40.090;18.348;2022-11-15T09:23:32;21.00;73.60
65582;DHT22;52231;40.090;18.348;2022-11-15T09:26:19;21.10;73.60
65582;DHT22;52231;40.090;18.348;2022-11-15T09:29:06;21.10;72.70
65582;DHT22;52231;40.090;18.348;2022-11-15T09:31:54;20.90;72.90
65582;DHT22;52231;40.090;18.348;2022-11-15T09:34:40;20.60;73.30
65582;DHT22;52231;40.090;18.348;2022-11-15T09:37:27;20.40;74.30
65582;DHT22;52231;40.090;18.348;2022-11-15T09:40:14;20.50;74.10
65582;DHT22;52231;40.090;18.348;2022-11-15T09:49:14;21.30;72.50
65582;DHT22;52231;40.090;18.348;2022-11-15T09:52:02;21.50;71.80
65582;DHT22;52231;40.090;18.348;2022-11-15T09:57:57;20.90;72.00
65582;DHT22;52231;40.090;18.348;2022-11-15T10:00:40;21.00;73.20
65582;DHT22;52231;40.090;18.348;2022-11-15T10:03:16;21.30;72.10
65582;DHT22;52231;40.090;18.348;2022-11-15T10:05:46;21.60;71.50
65582;DHT22;52231;40.090;18.348;2022-11-15T10:11:06;22.10;69.60
65582;DHT22;52231;40.090;18.348;2022-11-15T10:13:59;22.50;67.60
65582;DHT22;52231;40.090;18.348;2022-11-15T10:24:50;23.50;62.50
65582;DHT22;52231;40.090;18.348;2022-11-15T10:27:21;23.80;62.10
65582;DHT22;52231;40.090;18.348;2022-11-15T10:29:50;24.30;59.90
65582;DHT22;52231;40.090;18.348;2022-11-15T10:32:20;24.30;58.40
65582;DHT22;52231;40.090;18.348;2022-11-15T10:34:49;24.20;60.20
65582;DHT22;52231;40.090;18.348;2022-11-15T10:37:29;23.90;59.80
65582;DHT22;52231;40.090;18.348;2022-11-15T10:40:16;23.40;60.70
65582;DHT22;52231;40.090;18.348;2022-11-15T10:42:45;23.00;61.10
65582;DHT22;52231;40.090;18.348;2022-11-15T10:45:28;22.60;62.10
65582;DHT22;52231;40.090;18.348;2022-11-15T10:50:45;22.40;62.90
65582;DHT22;52231;40.090;18.348;2022-11-15T10:53:41;22.50;63.00
65582;DHT22;52231;40.090;18.348;2022-11-15T10:56:30;22.90;62.20
65582;DHT22;52231;40.090;18.348;2022-11-15T10:58:58;23.10;61.30
65582;DHT22;52231;40.090;18.348;2022-11-15T11:01:28;23.40;60.90
65582;DHT22;52231;40.090;18.348;2022-11-15T11:04:04;23.60;60.30
65582;DHT22;52231;40.090;18.348;2022-11-15T11:06:50;23.80;60.90
65582;DHT22;52231;40.090;18.348;2022-11-15T11:09:39;24.10;59.90
65582;DHT22;52231;40.090;18.348;2022-11-15T11:12:11;24.30;58.30
65582;DHT22;52231;40.090;18.348;2022-11-15T11:14:39;24.30;58.20
65582;DHT22;52231;40.090;18.348;2022-11-15T11:47:32;24.20;56.00
65582;DHT22;52231;40.090;18.348;2022-11-15T11:50:34;24.30;55.70
65582;DHT22;52231;40.090;18.348;2022-11-15T11:55:41;24.20;52.10
65582;DHT22;52231;40.090;18.348;2022-11-15T11:59:05;24.00;51.10
65582;DHT22;52231;40.090;18.348;2022-11-15T12:01:46;23.80;52.40
65582;DHT22;52231;40.090;18.348;2022-11-15T12:04:19;23.30;53.60
65582;DHT22;52231;40.090;18.348;2022-11-15T12:15:03;23.10;55.40
65582;DHT22;52231;40.090;18.348;2022-11-15T12:17:32;23.10;55.90
65582;DHT22;52231;40.090;18.348;2022-11-15T12:20:03;23.10;55.50
65582;DHT22;52231;40.090;18.348;2022-11-15T12:22:43;23.00;56.80
65582;DHT22;52231;40.090;18.348;2022-11-15T12:25:29;23.20;56.70
65582;DHT22;52231;40.090;18.348;2022-11-15T12:28:06;23.30;57.10
65582;DHT22;52231;40.090;18.348;2022-11-15T12:31:02;23.30;57.50
65582;DHT22;52231;40.090;18.348;2022-11-15T12:33:35;23.50;56.60
65582;DHT22;52231;40.090;18.348;2022-11-15T12:36:09;23.70;55.70
65582;DHT22;52231;40.090;18.348;2022-11-15T12:39:04;23.70;55.60
65582;DHT22;52231;40.090;18.348;2022-11-15T12:41:35;23.50;55.40
65582;DHT22;52231;40.090;18.348;2022-11-15T12:44:04;23.20;55.60
65582;DHT22;52231;40.090;18.348;2022-11-15T12:50:04;22.90;56.40
65582;DHT22;52231;40.090;18.348;2022-11-15T12:52:12;22.90;56.90
65582;DHT22;52231;40.090;18.348;2022-11-15T12:59:58;23.50;56.00
65582;DHT22;52231;40.090;18.348;2022-11-15T13:02:41;23.40;55.90
65582;DHT22;52231;40.090;18.348;2022-11-15T13:17:44;24.20;54.20
65582;DHT22;52231;40.090;18.348;2022-11-15T13:22:47;24.30;53.70
65582;DHT22;52231;40.090;18.348;2022-11-15T13:33:17;24.60;55.20
65582;DHT22;52231;40.090;18.348;2022-11-15T13:36:14;24.60;56.10
65582;DHT22;52231;40.090;18.348;2022-11-15T13:38:43;24.30;57.10
65582;DHT22;52231;40.090;18.348;2022-11-15T13:41:19;24.00;57.40
65582;DHT22;52231;40.090;18.348;2022-11-15T13:43:50;23.60;57.80
65582;DHT22;52231;40.090;18.348;2022-11-15T13:46:27;23.20;59.20
65582;DHT22;52231;40.090;18.348;2022-11-15T13:49:01;22.90;59.60
65582;DHT22;52231;40.090;18.348;2022-11-15T13:51:49;22.50;61.10
65582;DHT22;52231;40.090;18.348;2022-11-15T13:57:01;21.80;63.10
65582;DHT22;52231;40.090;18.348;2022-11-15T13:59:33;21.60;63.80
65582;DHT22;52231;40.090;18.348;2022-11-15T14:02:12;21.40;64.50
65582;DHT22;52231;40.090;18.348;2022-11-15T14:04:57;21.00;65.60
65582;DHT22;52231;40.090;18.348;2022-11-15T14:07:27;20.80;67.10
65582;DHT22;52231;40.090;18.348;2022-11-15T14:10:24;20.50;67.90
65582;DHT22;52231;40.090;18.348;2022-11-15T14:12:52;20.30;68.40
65582;DHT22;52231;40.090;18.348;2022-11-15T14:15:36;20.20;69.30
65582;DHT22;52231;40.090;18.348;2022-11-15T14:18:06;19.90;70.60
65582;DHT22;52231;40.090;18.348;2022-11-15T14:20:38;19.80;70.90
65582;DHT22;52231;40.090;18.348;2022-11-15T14:23:25;19.80;71.30
65582;DHT22;52231;40.090;18.348;2022-11-15T14:25:58;19.70;72.10
65582;DHT22;52231;40.090;18.348;2022-11-15T14:30:57;19.50;72.90
65582;DHT22;52231;40.090;18.348;2022-11-15T14:36:12;19.30;73.40
65582;DHT22;52231;40.090;18.348;2022-11-15T14:38:41;19.20;73.90
65582;DHT22;52231;40.090;18.348;2022-11-15T14:41:18;19.10;74.30
65582;DHT22;52231;40.090;18.348;2022-11-15T14:43:48;19.10;74.60
65582;DHT22;52231;40.090;18.348;2022-11-15T14:46:17;19.00;74.90
65582;DHT22;52231;40.090;18.348;2022-11-15T14:48:45;19.00;75.40
65582;DHT22;52231;40.090;18.348;2022-11-15T14:51:17;18.90;75.50
65582;DHT22;52231;40.090;18.348;2022-11-15T14:53:46;18.80;75.70
65582;DHT22;52231;40.090;18.348;2022-11-15T14:56:15;18.80;75.90
65582;DHT22;52231;40.090;18.348;2022-11-15T14:58:44;18.70;76.00
65582;DHT22;52231;40.090;18.348;2022-11-15T15:01:16;18.60;76.30
65582;DHT22;52231;40.090;18.348;2022-11-15T15:03:44;18.60;76.60
65582;DHT22;52231;40.090;18.348;2022-11-15T15:06:13;18.40;77.00
65582;DHT22;52231;40.090;18.348;2022-11-15T15:08:45;18.40;77.30
65582;DHT22;52231;40.090;18.348;2022-11-15T15:11:17;18.30;77.70
65582;DHT22;52231;40.090;18.348;2022-11-15T15:13:46;18.30;77.90
65582;DHT22;52231;40.090;18.348;2022-11-15T15:16:14;18.10;78.10
65582;DHT22;52231;40.090;18.348;2022-11-15T15:18:42;18.00;78.30
65582;DHT22;52231;40.090;18.348;2022-11-15T15:21:21;17.90;78.50
65582;DHT22;52231;40.090;18.348;2022-11-15T15:24:13;17.80;78.90
65582;DHT22;52231;40.090;18.348;2022-11-15T15:26:42;17.70;79.20
65582;DHT22;52231;40.090;18.348;2022-11-15T15:29:11;17.60;79.80
65582;DHT22;52231;40.090;18.348;2022-11-15T15:31:39;17.40;80.00
65582;DHT22;52231;40.090;18.348;2022-11-15T15:34:07;17.30;80.50
65582;DHT22;52231;40.090;18.348;2022-11-15T15:37:26;17.30;80.90
65582;DHT22;52231;40.090;18.348;2022-11-15T15:39:55;17.10;81.60
65582;DHT22;52231;40.090;18.348;2022-11-15T15:42:24;17.00;81.90
65582;DHT22;52231;40.090;18.348;2022-11-15T15:44:52;16.90;82.20
65582;DHT22;52231;40.090;18.348;2022-11-15T15:47:22;16.80;82.60
65582;DHT22;52231;40.090;18.348;2022-11-15T15:49:50;16.80;82.80
65582;DHT22;52231;40.090;18.348;2022-11-15T15:52:18;16.70;83.20
65582;DHT22;52231;40.090;18.348;2022-11-15T15:54:47;16.60;83.50
65582;DHT22;52231;40.090;18.348;2022-11-15T15:57:15;16.60;83.70
65582;DHT22;52231;40.090;18.348;2022-11-15T15:59:43;16.50;83.90
65582;DHT22;52231;40.090;18.348;2022-11-15T16:02:14;16.40;84.10
65582;DHT22;52231;40.090;18.348;2022-11-15T16:04:43;16.40;84.40
65582;DHT22;52231;40.090;18.348;2022-11-15T16:07:17;16.40;84.70
65582;DHT22;52231;40.090;18.348;2022-11-15T16:09:49;16.30;84.80
65582;DHT22;52231;40.090;18.348;2022-11-15T16:12:34;16.40;84.90
65582;DHT22;52231;40.090;18.348;2022-11-15T16:15:03;16.50;84.90
65582;DHT22;52231;40.090;18.348;2022-11-15T16:17:33;16.50;84.80
65582;DHT22;52231;40.090;18.348;2022-11-15T16:20:03;16.60;84.80
65582;DHT22;52231;40.090;18.348;2022-11-15T16:22:31;16.50;84.70
65582;DHT22;52231;40.090;18.348;2022-11-15T16:24:59;16.40;84.80
65582;DHT22;52231;40.090;18.348;2022-11-15T16:27:27;16.40;85.00
65582;DHT22;52231;40.090;18.348;2022-11-15T16:29:55;16.30;85.00
65582;DHT22;52231;40.090;18.348;2022-11-15T16:32:23;16.20;85.10
65582;DHT22;52231;40.090;18.348;2022-11-15T16:34:51;16.10;85.30
65582;DHT22;52231;40.090;18.348;2022-11-15T16:37:23;16.10;85.40
65582;DHT22;52231;40.090;18.348;2022-11-15T16:39:51;16.00;85.60
65582;DHT22;52231;40.090;18.348;2022-11-15T16:42:21;15.90;85.70
65582;DHT22;52231;40.090;18.348;2022-11-15T16:44:49;15.80;85.60
65582;DHT22;52231;40.090;18.348;2022-11-15T16:47:18;15.70;85.70
65582;DHT22;52231;40.090;18.348;2022-11-15T16:49:50;15.70;85.80
65582;DHT22;52231;40.090;18.348;2022-11-15T16:52:18;15.60;86.10
65582;DHT22;52231;40.090;18.348;2022-11-15T16:54:47;15.40;86.10
65582;DHT22;52231;40.090;18.348;2022-11-15T16:57:15;15.30;86.20
65582;DHT22;52231;40.090;18.348;2022-11-15T16:59:43;15.30;86.30
65582;DHT22;52231;40.090;18.348;2022-11-15T17:02:12;15.30;86.50
65582;DHT22;52231;40.090;18.348;2022-11-15T17:04:40;15.20;86.70
65582;DHT22;52231;40.090;18.348;2022-11-15T17:07:08;15.10;86.70
65582;DHT22;52231;40.090;18.348;2022-11-15T17:09:36;15.00;86.80
65582;DHT22;52231;40.090;18.348;2022-11-15T17:12:22;15.00;87.10
65582;DHT22;52231;40.090;18.348;2022-11-15T17:14:51;15.00;87.30
65582;DHT22;52231;40.090;18.348;2022-11-15T17:17:18;14.90;87.50
65582;DHT22;52231;40.090;18.348;2022-11-15T17:19:48;14.90;87.30
65582;DHT22;52231;40.090;18.348;2022-11-15T17:22:16;14.80;87.20
65582;DHT22;52231;40.090;18.348;2022-11-15T17:24:44;14.80;87.30
65582;DHT22;52231;40.090;18.348;2022-11-15T17:27:13;14.70;87.30
65582;DHT22;52231;40.090;18.348;2022-11-15T17:29:42;14.70;87.60
65582;DHT22;52231;40.090;18.348;2022-11-15T17:32:10;14.80;87.70
65582;DHT22;52231;40.090;18.348;2022-11-15T17:34:38;14.80;87.60
65582;DHT22;52231;40.090;18.348;2022-11-15T17:37:06;14.80;87.60
65582;DHT22;52231;40.090;18.348;2022-11-15T17:39:34;14.80;87.70
65582;DHT22;52231;40.090;18.348;2022-11-15T17:42:02;14.70;87.60
65582;DHT22;52231;40.090;18.348;2022-11-15T17:44:32;14.60;87.50
65582;DHT22;52231;40.090;18.348;2022-11-15T17:47:00;14.50;87.50
65582;DHT22;52231;40.090;18.348;2022-11-15T17:49:28;14.50;87.70
65582;DHT22;52231;40.090;18.348;2022-11-15T17:51:56;14.40;87.90
65582;DHT22;52231;40.090;18.348;2022-11-15T17:54:24;14.40;88.10
65582;DHT22;52231;40.090;18.348;2022-11-15T17:56:52;14.40;88.20
65582;DHT22;52231;40.090;18.348;2022-11-15T17:59:20;14.40;88.40
65582;DHT22;52231;40.090;18.348;2022-11-15T18:01:49;14.30;88.50
65582;DHT22;52231;40.090;18.348;2022-11-15T18:04:19;14.30;88.50
65582;DHT22;52231;40.090;18.348;2022-11-15T18:06:47;14.30;88.50
65582;DHT22;52231;40.090;18.348;2022-11-15T18:09:15;14.20;88.20
65582;DHT22;52231;40.090;18.348;2022-11-15T18:11:44;14.20;88.20
65582;DHT22;52231;40.090;18.348;2022-11-15T18:14:35;14.10;88.30
65582;DHT22;52231;40.090;18.348;2022-11-15T18:17:04;14.10;88.40
65582;DHT22;52231;40.090;18.348;2022-11-15T18:19:34;14.10;88.60
65582;DHT22;52231;40.090;18.348;2022-11-15T18:22:04;14.00;88.50
65582;DHT22;52231;40.090;18.348;2022-11-15T18:24:35;13.90;88.50
65582;DHT22;52231;40.090;18.348;2022-11-15T18:27:08;13.90;88.60
65582;DHT22;52231;40.090;18.348;2022-11-15T18:29:36;13.90;88.80
65582;DHT22;52231;40.090;18.348;2022-11-15T18:32:05;13.90;88.90
65582;DHT22;52231;40.090;18.348;2022-11-15T18:34:38;13.80;88.90
65582;DHT22;52231;40.090;18.348;2022-11-15T18:37:07;13.80;89.00
65582;DHT22;52231;40.090;18.348;2022-11-15T18:39:35;13.80;89.00
65582;DHT22;52231;40.090;18.348;2022-11-15T18:42:03;13.80;89.10
65582;DHT22;52231;40.090;18.348;2022-11-15T18:44:32;13.70;89.10
65582;DHT22;52231;40.090;18.348;2022-11-15T18:47:01;13.70;89.00
65582;DHT22;52231;40.090;18.348;2022-11-15T18:49:29;13.70;89.00
65582;DHT22;52231;40.090;18.348;2022-11-15T18:51:57;13.60;89.10